sensor_id;sensor_type;location;lat;lon;timestamp;temperature;humidity
9193;DHT22;4631;49.296;10.560;2022-09-09T00:02:05;13.90;99.90
9193;DHT22;4631;49.296;10.560;2022-09-09T00:04:36;13.90;99.90
9193;DHT22;4631;49.296;10.560;2022-09-09T00:07:04;13.90;99.90
9193;DHT22;4631;49.296;10.560;2022-09-09T00:09:33;13.80;99.90
9193;DHT22;4631;49.296;10.560;2022-09-09T00:12:04;13.80;99.90
9193;DHT22;4631;49.296;10.560;2022-09-09T00:14:37;13.80;99.90
9193;DHT22;4631;49.296;10.560;2022-09-09T00:17:08;13.80;99.90
9193;DHT22;4631;49.296;10.560;2022-09-09T00:19:37;13.80;99.90
9193;DHT22;4631;49.296;10.560;2022-09-09T00:22:12;13.80;99.90
9193;DHT22;4631;49.296;10.560;2022-09-09T00:24:41;13.70;99.90
9193;DHT22;4631;49.296;10.560;2022-09-09T00:27:12;13.70;99.90
9193;DHT22;4631;49.296;10.560;2022-09-09T00:29:43;13.70;99.90
9193;DHT22;4631;49.296;10.560;2022-09-09T00:32:12;13.60;99.90
9193;DHT22;4631;49.296;10.560;2022-09-09T00:34:39;13.60;99.90
9193;DHT22;4631;49.296;10.560;2022-09-09T00:37:09;13.50;99.90
9193;DHT22;4631;49.296;10.560;2022-09-09T00:39:37;13.50;99.90
9193;DHT22;4631;49.296;10.560;2022-09-09T00:42:08;13.50;99.90
9193;DHT22;4631;49.296;10.560;2022-09-09T00:44:39;13.50;99.90
9193;DHT22;4631;49.296;10.560;2022-09-09T00:47:20;13.50;99.90
9193;DHT22;4631;49.296;10.560;2022-09-09T00:49:56;13.50;99.90
9193;DHT22;4631;49.296;10.560;2022-09-09T00:52:27;13.40;99.90
9193;DHT22;4631;49.296;10.560;2022-09-09T00:54:59;13.40;99.90
9193;DHT22;4631;49.296;10.560;2022-09-09T00:57:30;13.40;99.90
9193;DHT22;4631;49.296;10.560;2022-09-09T00:59:58;13.40;99.90
9193;DHT22;4631;49.296;10.560;2022-09-09T01:02:27;13.40;99.90
9193;DHT22;4631;49.296;10.560;2022-09-09T01:04:55;13.40;99.90
9193;DHT22;4631;49.296;10.560;2022-09-09T01:07:24;13.40;99.90
9193;DHT22;4631;49.296;10.560;2022-09-09T01:09:52;13.40;99.90
9193;DHT22;4631;49.296;10.560;2022-09-09T01:12:24;13.40;99.90
9193;DHT22;4631;49.296;10.560;2022-09-09T01:14:51;13.30;99.90
9193;DHT22;4631;49.296;10.560;2022-09-09T01:17:20;13.30;99.90
9193;DHT22;4631;49.296;10.560;2022-09-09T01:19:52;13.30;99.90
9193;DHT22;4631;49.296;10.560;2022-09-09T01:22:22;13.30;99.90
9193;DHT22;4631;49.296;10.560;2022-09-09T01:25:05;13.30;99.90
9193;DHT22;4631;49.296;10.560;2022-09-09T01:27:39;13.30;99.90
9193;DHT22;4631;49.296;10.560;2022-09-09T01:30:08;13.20;99.90
9193;DHT22;4631;49.296;10.560;2022-09-09T01:32:37;13.20;99.90
9193;DHT22;4631;49.296;10.560;2022-09-09T01:35:05;13.20;99.90
9193;DHT22;4631;49.296;10.560;2022-09-09T01:37:32;13.20;99.90
9193;DHT22;4631;49.296;10.560;2022-09-09T01:39:59;13.20;99.90
9193;DHT22;4631;49.296;10.560;2022-09-09T01:42:26;13.20;99.90
9193;DHT22;4631;49.296;10.560;2022-09-09T01:44:54;13.10;99.90
9193;DHT22;4631;49.296;10.560;2022-09-09T01:47:20;13.10;99.90
9193;DHT22;4631;49.296;10.560;2022-09-09T01:49:47;13.10;99.90
9193;DHT22;4631;49.296;10.560;2022-09-09T01:52:13;13.10;99.90
9193;DHT22;4631;49.296;10.560;2022-09-09T01:54:40;13.10;99.90
9193;DHT22;4631;49.296;10.560;2022-09-09T01:57:09;13.10;99.90
9193;DHT22;4631;49.296;10.560;2022-09-09T01:59:41;13.10;99.90
9193;DHT22;4631;49.296;10.560;2022-09-09T02:02:16;13.10;99.90
9193;DHT22;4631;49.296;10.560;2022-09-09T02:04:44;13.10;99.90
9193;DHT22;4631;49.296;10.560;2022-09-09T02:07:19;13.00;99.90
9193;DHT22;4631;49.296;10.560;2022-09-09T02:09:49;13.00;99.90
9193;DHT22;4631;49.296;10.560;2022-09-09T02:12:18;13.00;99.90
9193;DHT22;4631;49.296;10.560;2022-09-09T02:14:47;13.00;99.90
9193;DHT22;4631;49.296;10.560;2022-09-09T02:17:18;13.00;99.90
9193;DHT22;4631;49.296;10.560;2022-09-09T02:19:46;12.90;99.90
9193;DHT22;4631;49.296;10.560;2022-09-09T02:22:14;12.90;99.90
9193;DHT22;4631;49.296;10.560;2022-09-09T02:24:42;12.90;99.90
9193;DHT22;4631;49.296;10.560;2022-09-09T02:27:11;12.80;99.90
9193;DHT22;4631;49.296;10.560;2022-09-09T02:29:38;12.80;99.90
9193;DHT22;4631;49.296;10.560;2022-09-09T02:32:08;12.80;99.90
9193;DHT22;4631;49.296;10.560;2022-09-09T02:34:38;12.80;99.90
9193;DHT22;4631;49.296;10.560;2022-09-09T02:37:06;12.80;99.90
9193;DHT22;4631;49.296;10.560;2022-09-09T02:39:33;12.80;99.90
9193;DHT22;4631;49.296;10.560;2022-09-09T02:42:00;12.90;99.90
9193;DHT22;4631;49.296;10.560;2022-09-09T02:44:29;12.90;99.90
9193;DHT22;4631;49.296;10.560;2022-09-09T02:47:00;12.90;99.90
9193;DHT22;4631;49.296;10.560;2022-09-09T02:49:32;13.00;99.90
9193;DHT22;4631;49.296;10.560;2022-09-09T02:52:02;12.90;99.90
9193;DHT22;4631;49.296;10.560;2022-09-09T02:54:31;12.90;99.90
9193;DHT22;4631;49.296;10.560;2022-09-09T02:57:00;12.90;99.90
9193;DHT22;4631;49.296;10.560;2022-09-09T02:59:27;13.00;99.90
9193;DHT22;4631;49.296;10.560;2022-09-09T03:01:55;13.00;99.90
9193;DHT22;4631;49.296;10.560;2022-09-09T03:04:22;13.00;99.90
9193;DHT22;4631;49.296;10.560;2022-09-09T03:06:49;13.00;99.90
9193;DHT22;4631;49.296;10.560;2022-09-09T03:09:17;13.00;99.90
9193;DHT22;4631;49.296;10.560;2022-09-09T03:11:44;13.10;99.90
9193;DHT22;4631;49.296;10.560;2022-09-09T03:14:11;13.10;99.90
9193;DHT22;4631;49.296;10.560;2022-09-09T03:16:37;13.10;99.90
9193;DHT22;4631;49.296;10.560;2022-09-09T03:19:04;13.10;99.90
9193;DHT22;4631;49.296;10.560;2022-09-09T03:21:31;13.10;99.90
9193;DHT22;4631;49.296;10.560;2022-09-09T03:23:58;13.10;99.90
9193;DHT22;4631;49.296;10.560;2022-09-09T03:26:26;13.10;99.90
9193;DHT22;4631;49.296;10.560;2022-09-09T03:28:53;13.10;99.90
9193;DHT22;4631;49.296;10.560;2022-09-09T03:31:19;13.20;99.90
9193;DHT22;4631;49.296;10.560;2022-09-09T03:33:46;13.20;99.90
9193;DHT22;4631;49.296;10.560;2022-09-09T03:36:13;13.20;99.90
9193;DHT22;4631;49.296;10.560;2022-09-09T03:38:40;13.20;99.90
9193;DHT22;4631;49.296;10.560;2022-09-09T03:41:06;13.20;99.90
9193;DHT22;4631;49.296;10.560;2022-09-09T03:43:35;13.10;99.90
9193;DHT22;4631;49.296;10.560;2022-09-09T03:46:03;13.10;99.90
9193;DHT22;4631;49.296;10.560;2022-09-09T03:48:29;13.00;99.90
9193;DHT22;4631;49.296;10.560;2022-09-09T03:50:56;13.10;99.90
9193;DHT22;4631;49.296;10.560;2022-09-09T03:53:26;13.00;99.90
9193;DHT22;4631;49.296;10.560;2022-09-09T03:55:53;13.00;99.90
9193;DHT22;4631;49.296;10.560;2022-09-09T03:58:21;13.00;99.90
9193;DHT22;4631;49.296;10.560;2022-09-09T04:00:54;13.00;99.90
9193;DHT22;4631;49.296;10.560;2022-09-09T04:03:21;13.00;99.90
9193;DHT22;4631;49.296;10.560;2022-09-09T04:05:49;13.00;99.90
9193;DHT22;4631;49.296;10.560;2022-09-09T04:08:16;13.00;99.90
9193;DHT22;4631;49.296;10.560;2022-09-09T04:10:44;13.00;99.90
9193;DHT22;4631;49.296;10.560;2022-09-09T04:13:11;12.90;99.90
9193;DHT22;4631;49.296;10.560;2022-09-09T04:15:41;12.90;99.90
9193;DHT22;4631;49.296;10.560;2022-09-09T04:18:09;12.90;99.90
9193;DHT22;4631;49.296;10.560;2022-09-09T04:20:37;12.90;99.90
9193;DHT22;4631;49.296;10.560;2022-09-09T04:23:04;12.90;99.90
9193;DHT22;4631;49.296;10.560;2022-09-09T04:25:31;12.80;99.90
9193;DHT22;4631;49.296;10.560;2022-09-09T04:27:58;12.80;99.90
9193;DHT22;4631;49.296;10.560;2022-09-09T04:30:24;12.80;99.90
9193;DHT22;4631;49.296;10.560;2022-09-09T04:32:52;12.70;99.90
9193;DHT22;4631;49.296;10.560;2022-09-09T04:35:20;12.70;99.90
9193;DHT22;4631;49.296;10.560;2022-09-09T04:37:47;12.70;99.90
9193;DHT22;4631;49.296;10.560;2022-09-09T04:40:14;12.70;99.90
9193;DHT22;4631;49.296;10.560;2022-09-09T04:42:40;12.70;99.90
9193;DHT22;4631;49.296;10.560;2022-09-09T04:45:09;12.70;99.90
9193;DHT22;4631;49.296;10.560;2022-09-09T04:47:36;12.70;99.90
9193;DHT22;4631;49.296;10.560;2022-09-09T04:50:03;12.70;99.90
9193;DHT22;4631;49.296;10.560;2022-09-09T04:52:33;12.70;99.90
9193;DHT22;4631;49.296;10.560;2022-09-09T04:54:59;12.70;99.90
9193;DHT22;4631;49.296;10.560;2022-09-09T04:57:26;12.60;99.90
9193;DHT22;4631;49.296;10.560;2022-09-09T04:59:54;12.60;99.90
9193;DHT22;4631;49.296;10.560;2022-09-09T05:02:20;12.60;99.90
9193;DHT22;4631;49.296;10.560;2022-09-09T05:04:47;12.60;99.90
9193;DHT22;4631;49.296;10.560;2022-09-09T05:07:14;12.70;99.90
9193;DHT22;4631;49.296;10.560;2022-09-09T05:09:42;12.60;99.90
9193;DHT22;4631;49.296;10.560;2022-09-09T05:12:10;12.70;99.90
9193;DHT22;4631;49.296;10.560;2022-09-09T05:14:37;12.70;99.90
9193;DHT22;4631;49.296;10.560;2022-09-09T05:17:04;12.70;99.90
9193;DHT22;4631;49.296;10.560;2022-09-09T05:19:30;12.70;99.90
9193;DHT22;4631;49.296;10.560;2022-09-09T05:21:57;12.70;99.90
9193;DHT22;4631;49.296;10.560;2022-09-09T05:24:23;12.80;99.90
9193;DHT22;4631;49.296;10.560;2022-09-09T05:26:51;12.80;99.90
9193;DHT22;4631;49.296;10.560;2022-09-09T05:29:18;12.80;99.90
9193;DHT22;4631;49.296;10.560;2022-09-09T05:31:45;12.80;99.90
9193;DHT22;4631;49.296;10.560;2022-09-09T05:34:12;12.80;99.90
9193;DHT22;4631;49.296;10.560;2022-09-09T05:36:39;12.70;99.90
9193;DHT22;4631;49.296;10.560;2022-09-09T05:39:05;12.80;99.90
9193;DHT22;4631;49.296;10.560;2022-09-09T05:41:32;12.80;99.90
9193;DHT22;4631;49.296;10.560;2022-09-09T05:44:01;12.80;99.90
9193;DHT22;4631;49.296;10.560;2022-09-09T05:46:28;12.80;99.90
9193;DHT22;4631;49.296;10.560;2022-09-09T05:48:55;12.80;99.90
9193;DHT22;4631;49.296;10.560;2022-09-09T05:51:24;12.80;99.90
9193;DHT22;4631;49.296;10.560;2022-09-09T05:53:51;12.80;99.90
9193;DHT22;4631;49.296;10.560;2022-09-09T05:56:20;12.90;99.90
9193;DHT22;4631;49.296;10.560;2022-09-09T05:58:49;12.90;99.90
9193;DHT22;4631;49.296;10.560;2022-09-09T06:01:18;12.90;99.90
9193;DHT22;4631;49.296;10.560;2022-09-09T06:03:46;13.00;99.90
9193;DHT22;4631;49.296;10.560;2022-09-09T06:06:13;13.10;99.90
9193;DHT22;4631;49.296;10.560;2022-09-09T06:08:41;13.10;99.90
9193;DHT22;4631;49.296;10.560;2022-09-09T06:11:10;13.00;99.90
9193;DHT22;4631;49.296;10.560;2022-09-09T06:13:37;13.10;99.90
9193;DHT22;4631;49.296;10.560;2022-09-09T06:16:05;13.20;99.90
9193;DHT22;4631;49.296;10.560;2022-09-09T06:18:33;13.20;99.90
9193;DHT22;4631;49.296;10.560;2022-09-09T06:21:01;13.20;99.90
9193;DHT22;4631;49.296;10.560;2022-09-09T06:23:28;13.30;99.90
9193;DHT22;4631;49.296;10.560;2022-09-09T06:26:02;13.40;99.90
9193;DHT22;4631;49.296;10.560;2022-09-09T06:28:30;13.50;99.90
9193;DHT22;4631;49.296;10.560;2022-09-09T06:30:57;13.50;99.90
9193;DHT22;4631;49.296;10.560;2022-09-09T06:33:24;13.70;99.90
9193;DHT22;4631;49.296;10.560;2022-09-09T06:35:53;13.70;99.90
9193;DHT22;4631;49.296;10.560;2022-09-09T06:38:19;13.80;99.90
9193;DHT22;4631;49.296;10.560;2022-09-09T06:40:50;13.90;99.90
9193;DHT22;4631;49.296;10.560;2022-09-09T06:43:17;14.00;99.90
9193;DHT22;4631;49.296;10.560;2022-09-09T06:45:52;14.20;99.90
9193;DHT22;4631;49.296;10.560;2022-09-09T06:48:18;14.30;99.90
9193;DHT22;4631;49.296;10.560;2022-09-09T06:50:45;14.40;99.90
9193;DHT22;4631;49.296;10.560;2022-09-09T06:53:13;14.50;99.90
9193;DHT22;4631;49.296;10.560;2022-09-09T06:55:41;14.60;99.90
9193;DHT22;4631;49.296;10.560;2022-09-09T06:58:10;14.70;99.90
9193;DHT22;4631;49.296;10.560;2022-09-09T07:00:36;14.80;99.90
9193;DHT22;4631;49.296;10.560;2022-09-09T07:03:04;15.00;99.90
9193;DHT22;4631;49.296;10.560;2022-09-09T07:05:30;15.00;99.90
9193;DHT22;4631;49.296;10.560;2022-09-09T07:07:57;15.20;99.90
9193;DHT22;4631;49.296;10.560;2022-09-09T07:10:25;15.30;99.90
9193;DHT22;4631;49.296;10.560;2022-09-09T07:12:52;15.40;99.90
9193;DHT22;4631;49.296;10.560;2022-09-09T07:15:18;15.40;99.90
9193;DHT22;4631;49.296;10.560;2022-09-09T07:17:45;15.50;99.90
9193;DHT22;4631;49.296;10.560;2022-09-09T07:20:12;15.60;99.90
9193;DHT22;4631;49.296;10.560;2022-09-09T07:22:39;15.70;99.90
9193;DHT22;4631;49.296;10.560;2022-09-09T07:25:07;15.70;99.90
9193;DHT22;4631;49.296;10.560;2022-09-09T07:27:35;15.80;99.90
9193;DHT22;4631;49.296;10.560;2022-09-09T07:30:02;15.90;99.90
9193;DHT22;4631;49.296;10.560;2022-09-09T07:32:29;16.10;99.90
9193;DHT22;4631;49.296;10.560;2022-09-09T07:34:56;16.20;99.90
9193;DHT22;4631;49.296;10.560;2022-09-09T07:37:23;16.20;99.90
9193;DHT22;4631;49.296;10.560;2022-09-09T07:39:50;16.30;99.90
9193;DHT22;4631;49.296;10.560;2022-09-09T07:42:17;16.40;99.90
9193;DHT22;4631;49.296;10.560;2022-09-09T07:44:45;16.60;99.90
9193;DHT22;4631;49.296;10.560;2022-09-09T07:47:12;16.60;99.90
9193;DHT22;4631;49.296;10.560;2022-09-09T07:49:39;16.70;99.90
9193;DHT22;4631;49.296;10.560;2022-09-09T07:52:06;16.80;99.90
9193;DHT22;4631;49.296;10.560;2022-09-09T07:54:32;17.00;99.90
9193;DHT22;4631;49.296;10.560;2022-09-09T07:56:59;17.10;99.90
9193;DHT22;4631;49.296;10.560;2022-09-09T07:59:26;17.20;99.90
9193;DHT22;4631;49.296;10.560;2022-09-09T08:01:56;17.30;99.90
9193;DHT22;4631;49.296;10.560;2022-09-09T08:04:23;17.40;99.90
9193;DHT22;4631;49.296;10.560;2022-09-09T08:06:52;17.50;99.90
9193;DHT22;4631;49.296;10.560;2022-09-09T08:09:19;17.50;99.90
9193;DHT22;4631;49.296;10.560;2022-09-09T08:11:47;17.60;99.90
9193;DHT22;4631;49.296;10.560;2022-09-09T08:14:13;17.70;99.90
9193;DHT22;4631;49.296;10.560;2022-09-09T08:16:41;17.80;99.90
9193;DHT22;4631;49.296;10.560;2022-09-09T08:19:09;17.90;99.90
9193;DHT22;4631;49.296;10.560;2022-09-09T08:21:37;18.00;99.90
9193;DHT22;4631;49.296;10.560;2022-09-09T08:24:05;18.10;99.90
9193;DHT22;4631;49.296;10.560;2022-09-09T08:26:33;18.10;99.90
9193;DHT22;4631;49.296;10.560;2022-09-09T08:29:00;18.20;99.90
9193;DHT22;4631;49.296;10.560;2022-09-09T08:31:28;18.20;99.90
9193;DHT22;4631;49.296;10.560;2022-09-09T08:33:55;18.30;99.90
9193;DHT22;4631;49.296;10.560;2022-09-09T08:36:24;18.40;99.90
9193;DHT22;4631;49.296;10.560;2022-09-09T08:38:52;18.40;99.90
9193;DHT22;4631;49.296;10.560;2022-09-09T08:41:35;18.50;99.90
9193;DHT22;4631;49.296;10.560;2022-09-09T08:44:04;18.50;99.90
9193;DHT22;4631;49.296;10.560;2022-09-09T08:46:33;18.60;99.90
9193;DHT22;4631;49.296;10.560;2022-09-09T08:49:03;18.60;99.90
9193;DHT22;4631;49.296;10.560;2022-09-09T08:51:34;18.60;99.90
9193;DHT22;4631;49.296;10.560;2022-09-09T08:54:02;18.70;99.90
9193;DHT22;4631;49.296;10.560;2022-09-09T08:56:30;18.80;99.90
9193;DHT22;4631;49.296;10.560;2022-09-09T08:58:59;18.80;99.90
9193;DHT22;4631;49.296;10.560;2022-09-09T09:01:30;18.90;99.90
9193;DHT22;4631;49.296;10.560;2022-09-09T09:04:03;18.90;99.90
9193;DHT22;4631;49.296;10.560;2022-09-09T09:06:41;19.00;99.90
9193;DHT22;4631;49.296;10.560;2022-09-09T09:09:11;19.10;99.90
9193;DHT22;4631;49.296;10.560;2022-09-09T09:11:40;19.20;99.90
9193;DHT22;4631;49.296;10.560;2022-09-09T09:14:10;19.30;99.90
9193;DHT22;4631;49.296;10.560;2022-09-09T09:16:38;19.40;99.90
9193;DHT22;4631;49.296;10.560;2022-09-09T09:19:07;19.60;99.90
9193;DHT22;4631;49.296;10.560;2022-09-09T09:21:36;19.60;99.90
9193;DHT22;4631;49.296;10.560;2022-09-09T09:24:12;19.70;99.90
9193;DHT22;4631;49.296;10.560;2022-09-09T09:26:43;19.70;99.90
9193;DHT22;4631;49.296;10.560;2022-09-09T09:29:10;19.70;99.90
9193;DHT22;4631;49.296;10.560;2022-09-09T09:31:38;19.70;99.90
9193;DHT22;4631;49.296;10.560;2022-09-09T09:34:05;19.70;99.90
9193;DHT22;4631;49.296;10.560;2022-09-09T09:36:37;19.70;99.90
9193;DHT22;4631;49.296;10.560;2022-09-09T09:39:05;19.80;99.90
9193;DHT22;4631;49.296;10.560;2022-09-09T09:41:34;19.90;99.90
9193;DHT22;4631;49.296;10.560;2022-09-09T09:44:01;20.00;99.90
9193;DHT22;4631;49.296;10.560;2022-09-09T09:46:28;20.00;99.90
9193;DHT22;4631;49.296;10.560;2022-09-09T09:48:58;20.10;99.90
9193;DHT22;4631;49.296;10.560;2022-09-09T09:51:25;20.00;99.90
9193;DHT22;4631;49.296;10.560;2022-09-09T09:53:52;20.10;99.90
9193;DHT22;4631;49.296;10.560;2022-09-09T09:56:26;20.00;99.90
9193;DHT22;4631;49.296;10.560;2022-09-09T09:58:55;20.00;99.90
9193;DHT22;4631;49.296;10.560;2022-09-09T10:01:22;20.00;99.90
9193;DHT22;4631;49.296;10.560;2022-09-09T10:03:51;19.90;99.90
9193;DHT22;4631;49.296;10.560;2022-09-09T10:06:28;19.80;99.90
9193;DHT22;4631;49.296;10.560;2022-09-09T10:08:55;19.80;99.90
9193;DHT22;4631;49.296;10.560;2022-09-09T10:11:25;19.90;99.90
9193;DHT22;4631;49.296;10.560;2022-09-09T10:13:55;20.00;99.90
9193;DHT22;4631;49.296;10.560;2022-09-09T10:16:38;20.20;99.90
9193;DHT22;4631;49.296;10.560;2022-09-09T10:19:09;20.40;99.90
9193;DHT22;4631;49.296;10.560;2022-09-09T10:21:54;20.70;99.90
9193;DHT22;4631;49.296;10.560;2022-09-09T10:27:15;21.10;99.90
9193;DHT22;4631;49.296;10.560;2022-09-09T10:41:40;20.70;99.90
9193;DHT22;4631;49.296;10.560;2022-09-09T10:47:37;20.60;99.90
9193;DHT22;4631;49.296;10.560;2022-09-09T10:50:12;20.50;99.90
9193;DHT22;4631;49.296;10.560;2022-09-09T10:52:44;20.60;99.90
9193;DHT22;4631;49.296;10.560;2022-09-09T10:55:23;20.80;99.90
9193;DHT22;4631;49.296;10.560;2022-09-09T10:57:53;21.10;99.90
9193;DHT22;4631;49.296;10.560;2022-09-09T11:00:24;21.20;99.90
9193;DHT22;4631;49.296;10.560;2022-09-09T11:02:51;21.10;99.90
9193;DHT22;4631;49.296;10.560;2022-09-09T11:05:20;21.00;99.90
9193;DHT22;4631;49.296;10.560;2022-09-09T11:07:48;20.90;99.90
9193;DHT22;4631;49.296;10.560;2022-09-09T11:10:20;20.80;99.90
9193;DHT22;4631;49.296;10.560;2022-09-09T11:12:48;20.80;99.90
9193;DHT22;4631;49.296;10.560;2022-09-09T11:15:19;20.80;99.90
9193;DHT22;4631;49.296;10.560;2022-09-09T11:17:47;20.90;99.90
9193;DHT22;4631;49.296;10.560;2022-09-09T11:20:16;20.90;99.90
9193;DHT22;4631;49.296;10.560;2022-09-09T11:22:44;20.90;99.90
9193;DHT22;4631;49.296;10.560;2022-09-09T11:25:14;21.00;99.90
9193;DHT22;4631;49.296;10.560;2022-09-09T11:27:54;21.10;99.90
9193;DHT22;4631;49.296;10.560;2022-09-09T11:30:24;21.30;99.90
9193;DHT22;4631;49.296;10.560;2022-09-09T11:32:56;21.50;99.90
9193;DHT22;4631;49.296;10.560;2022-09-09T11:35:30;21.90;99.90
9193;DHT22;4631;49.296;10.560;2022-09-09T11:38:06;22.30;99.90
9193;DHT22;4631;49.296;10.560;2022-09-09T11:40:36;22.60;99.90
9193;DHT22;4631;49.296;10.560;2022-09-09T11:43:04;22.90;99.90
9193;DHT22;4631;49.296;10.560;2022-09-09T11:45:33;23.10;99.90
9193;DHT22;4631;49.296;10.560;2022-09-09T11:48:01;23.10;99.90
9193;DHT22;4631;49.296;10.560;2022-09-09T11:50:29;23.10;99.90
9193;DHT22;4631;49.296;10.560;2022-09-09T11:53:04;23.10;99.90
9193;DHT22;4631;49.296;10.560;2022-09-09T11:55:33;23.00;99.90
9193;DHT22;4631;49.296;10.560;2022-09-09T11:58:02;23.00;99.90
9193;DHT22;4631;49.296;10.560;2022-09-09T12:00:35;22.90;99.90
9193;DHT22;4631;49.296;10.560;2022-09-09T12:03:03;22.80;99.90
9193;DHT22;4631;49.296;10.560;2022-09-09T12:05:37;22.60;99.90
9193;DHT22;4631;49.296;10.560;2022-09-09T12:14:55;20.70;99.90
9193;DHT22;4631;49.296;10.560;2022-09-09T12:48:49;19.80;99.90
9193;DHT22;4631;49.296;10.560;2022-09-09T12:51:41;20.40;99.90
9193;DHT22;4631;49.296;10.560;2022-09-09T13:00:29;21.00;99.90
9193;DHT22;4631;49.296;10.560;2022-09-09T13:02:57;21.10;99.90
9193;DHT22;4631;49.296;10.560;2022-09-09T13:05:26;21.10;99.90
9193;DHT22;4631;49.296;10.560;2022-09-09T13:08:00;21.00;99.90
9193;DHT22;4631;49.296;10.560;2022-09-09T13:10:27;20.90;99.90
9193;DHT22;4631;49.296;10.560;2022-09-09T13:12:55;20.80;99.90
9193;DHT22;4631;49.296;10.560;2022-09-09T13:15:24;20.70;99.90
9193;DHT22;4631;49.296;10.560;2022-09-09T13:17:53;20.60;99.90
9193;DHT22;4631;49.296;10.560;2022-09-09T13:20:20;20.50;99.90
9193;DHT22;4631;49.296;10.560;2022-09-09T13:22:49;20.40;99.90
9193;DHT22;4631;49.296;10.560;2022-09-09T13:25:19;20.30;99.90
9193;DHT22;4631;49.296;10.560;2022-09-09T13:30:29;20.20;99.90
9193;DHT22;4631;49.296;10.560;2022-09-09T13:33:04;20.10;99.90
9193;DHT22;4631;49.296;10.560;2022-09-09T13:35:31;20.10;99.90
9193;DHT22;4631;49.296;10.560;2022-09-09T13:38:00;19.90;99.90
9193;DHT22;4631;49.296;10.560;2022-09-09T13:40:32;19.80;99.90
9193;DHT22;4631;49.296;10.560;2022-09-09T13:42:59;19.80;99.90
9193;DHT22;4631;49.296;10.560;2022-09-09T13:45:27;19.70;99.90
9193;DHT22;4631;49.296;10.560;2022-09-09T13:47:54;19.60;99.90
9193;DHT22;4631;49.296;10.560;2022-09-09T13:50:22;19.40;99.90
9193;DHT22;4631;49.296;10.560;2022-09-09T13:52:48;19.30;99.90
9193;DHT22;4631;49.296;10.560;2022-09-09T13:55:18;19.10;99.90
9193;DHT22;4631;49.296;10.560;2022-09-09T13:57:50;19.00;99.90
9193;DHT22;4631;49.296;10.560;2022-09-09T14:03:21;18.50;99.90
9193;DHT22;4631;49.296;10.560;2022-09-09T14:05:48;18.30;99.90
9193;DHT22;4631;49.296;10.560;2022-09-09T14:08:19;18.20;99.90
9193;DHT22;4631;49.296;10.560;2022-09-09T14:10:48;18.00;99.90
9193;DHT22;4631;49.296;10.560;2022-09-09T14:13:18;17.90;99.90
9193;DHT22;4631;49.296;10.560;2022-09-09T14:15:47;17.70;99.90
9193;DHT22;4631;49.296;10.560;2022-09-09T14:18:14;17.40;99.90
9193;DHT22;4631;49.296;10.560;2022-09-09T14:20:41;17.40;99.90
9193;DHT22;4631;49.296;10.560;2022-09-09T14:23:09;17.30;99.90
9193;DHT22;4631;49.296;10.560;2022-09-09T14:25:40;17.20;99.90
9193;DHT22;4631;49.296;10.560;2022-09-09T14:28:12;17.10;99.90
9193;DHT22;4631;49.296;10.560;2022-09-09T14:30:39;17.20;99.90
9193;DHT22;4631;49.296;10.560;2022-09-09T14:33:09;17.20;99.90
9193;DHT22;4631;49.296;10.560;2022-09-09T14:35:36;17.50;99.90
9193;DHT22;4631;49.296;10.560;2022-09-09T14:38:04;17.90;99.90
9193;DHT22;4631;49.296;10.560;2022-09-09T14:40:31;18.20;99.90
9193;DHT22;4631;49.296;10.560;2022-09-09T14:42:59;18.30;99.90
9193;DHT22;4631;49.296;10.560;2022-09-09T14:45:27;18.50;99.90
9193;DHT22;4631;49.296;10.560;2022-09-09T14:47:54;19.00;99.90
9193;DHT22;4631;49.296;10.560;2022-09-09T14:50:21;19.40;99.90
9193;DHT22;4631;49.296;10.560;2022-09-09T14:52:48;19.90;99.90
9193;DHT22;4631;49.296;10.560;2022-09-09T14:55:16;20.40;99.90
9193;DHT22;4631;49.296;10.560;2022-09-09T14:57:43;20.80;99.90
9193;DHT22;4631;49.296;10.560;2022-09-09T15:00:10;21.10;99.90
9193;DHT22;4631;49.296;10.560;2022-09-09T15:02:39;21.50;99.90
9193;DHT22;4631;49.296;10.560;2022-09-09T15:05:06;21.90;99.90
9193;DHT22;4631;49.296;10.560;2022-09-09T15:07:32;22.10;99.90
9193;DHT22;4631;49.296;10.560;2022-09-09T15:09:59;22.20;99.90
9193;DHT22;4631;49.296;10.560;2022-09-09T15:12:26;22.40;99.90
9193;DHT22;4631;49.296;10.560;2022-09-09T15:14:53;22.40;99.90
9193;DHT22;4631;49.296;10.560;2022-09-09T15:17:21;22.20;99.90
9193;DHT22;4631;49.296;10.560;2022-09-09T15:19:49;22.00;99.90
9193;DHT22;4631;49.296;10.560;2022-09-09T15:22:25;21.70;99.90
9193;DHT22;4631;49.296;10.560;2022-09-09T15:24:51;21.40;99.90
9193;DHT22;4631;49.296;10.560;2022-09-09T15:27:19;21.20;99.90
9193;DHT22;4631;49.296;10.560;2022-09-09T15:29:48;21.00;99.90
9193;DHT22;4631;49.296;10.560;2022-09-09T15:32:18;20.80;99.90
9193;DHT22;4631;49.296;10.560;2022-09-09T15:34:45;20.70;99.90
9193;DHT22;4631;49.296;10.560;2022-09-09T15:37:13;20.60;99.90
9193;DHT22;4631;49.296;10.560;2022-09-09T15:39:39;20.50;99.90
9193;DHT22;4631;49.296;10.560;2022-09-09T15:42:06;20.70;99.90
9193;DHT22;4631;49.296;10.560;2022-09-09T15:44:40;21.00;99.90
9193;DHT22;4631;49.296;10.560;2022-09-09T15:47:07;21.30;99.90
9193;DHT22;4631;49.296;10.560;2022-09-09T15:49:37;21.40;99.90
9193;DHT22;4631;49.296;10.560;2022-09-09T15:52:04;21.30;99.90
9193;DHT22;4631;49.296;10.560;2022-09-09T15:54:33;21.40;99.90
9193;DHT22;4631;49.296;10.560;2022-09-09T15:57:00;21.50;99.90
9193;DHT22;4631;49.296;10.560;2022-09-09T15:59:27;21.60;99.90
9193;DHT22;4631;49.296;10.560;2022-09-09T16:01:54;21.90;99.90
9193;DHT22;4631;49.296;10.560;2022-09-09T16:04:22;22.00;99.90
9193;DHT22;4631;49.296;10.560;2022-09-09T16:06:50;22.00;99.90
9193;DHT22;4631;49.296;10.560;2022-09-09T16:09:17;22.00;99.90
9193;DHT22;4631;49.296;10.560;2022-09-09T16:11:45;22.00;99.90
9193;DHT22;4631;49.296;10.560;2022-09-09T16:14:13;22.00;99.90
9193;DHT22;4631;49.296;10.560;2022-09-09T16:16:41;22.00;99.90
9193;DHT22;4631;49.296;10.560;2022-09-09T16:19:08;21.70;99.90
9193;DHT22;4631;49.296;10.560;2022-09-09T16:21:36;21.40;99.90
9193;DHT22;4631;49.296;10.560;2022-09-09T16:24:05;21.20;99.90
9193;DHT22;4631;49.296;10.560;2022-09-09T16:26:33;20.90;99.90
9193;DHT22;4631;49.296;10.560;2022-09-09T16:29:02;20.70;99.90
9193;DHT22;4631;49.296;10.560;2022-09-09T16:31:29;20.50;99.90
9193;DHT22;4631;49.296;10.560;2022-09-09T16:33:57;20.40;99.90
9193;DHT22;4631;49.296;10.560;2022-09-09T16:36:24;20.30;99.90
9193;DHT22;4631;49.296;10.560;2022-09-09T16:38:52;20.20;99.90
9193;DHT22;4631;49.296;10.560;2022-09-09T16:41:19;20.10;99.90
9193;DHT22;4631;49.296;10.560;2022-09-09T16:43:46;20.00;99.90
9193;DHT22;4631;49.296;10.560;2022-09-09T16:46:15;20.00;99.90
9193;DHT22;4631;49.296;10.560;2022-09-09T16:48:42;20.00;99.90
9193;DHT22;4631;49.296;10.560;2022-09-09T16:51:11;19.90;99.90
9193;DHT22;4631;49.296;10.560;2022-09-09T16:53:39;19.90;99.90
9193;DHT22;4631;49.296;10.560;2022-09-09T16:56:07;19.80;99.90
9193;DHT22;4631;49.296;10.560;2022-09-09T16:58:34;19.80;99.90
9193;DHT22;4631;49.296;10.560;2022-09-09T17:01:02;19.80;99.90
9193;DHT22;4631;49.296;10.560;2022-09-09T17:03:31;19.70;99.90